createdAt,value
2023-11-28T05:00:40.839Z,97.05
2023-11-28T05:01:41.863Z,96.63
2023-11-28T05:02:41.962Z,96.31
2023-11-28T05:03:41.921Z,96.21
2023-11-28T05:04:41.822Z,96.11
2023-11-28T05:05:41.778Z,95.90
2023-11-28T05:06:41.767Z,95.27
2023-11-28T05:07:41.828Z,95.48
2023-11-28T05:08:41.745Z,95.06
2023-11-28T05:09:41.693Z,95.27
2023-11-28T05:10:41.759Z,95.27
2023-11-28T05:11:41.722Z,95.27
2023-11-28T05:12:41.699Z,95.37
2023-11-28T05:13:41.727Z,95.37
2023-11-28T05:14:41.693Z,95.58
2023-11-28T05:15:41.679Z,95.37
2023-11-28T05:16:48.402Z,94.95
2023-11-28T05:17:41.755Z,94.95
2023-11-28T05:18:41.782Z,95.27
2023-11-28T05:19:41.669Z,95.58
2023-11-28T05:20:41.664Z,94.95
2023-11-28T05:21:41.617Z,94.64
2023-11-28T05:22:41.611Z,94.74
2023-11-28T05:23:41.596Z,94.85
2023-11-28T05:24:41.533Z,95.27
2023-11-28T05:25:41.576Z,95.58
2023-11-28T05:26:41.495Z,96.00
2023-11-28T05:27:41.560Z,96.11
2023-11-28T05:28:41.535Z,96.11
2023-11-28T05:29:41.578Z,95.68
2023-11-28T05:30:41.541Z,95.48
2023-11-28T05:31:41.546Z,95.27
2023-11-28T05:32:41.527Z,95.37
2023-11-28T05:33:41.489Z,95.37
2023-11-28T05:34:41.493Z,95.27
2023-11-28T05:35:41.486Z,94.85
2023-11-28T05:36:41.472Z,94.95
2023-11-28T05:37:41.448Z,95.17
2023-11-28T05:38:41.443Z,95.27
2023-11-28T05:39:41.410Z,95.06
2023-11-28T05:40:41.439Z,94.79
2023-11-28T05:41:41.359Z,94.85
2023-11-28T05:42:41.404Z,95.06
2023-11-28T05:43:41.340Z,95.37
2023-11-28T05:44:42.694Z,95.27
2023-11-28T05:45:42.284Z,95.37
2023-11-28T05:46:41.431Z,95.79
2023-11-28T05:47:41.465Z,95.79
2023-11-28T05:48:41.328Z,95.79
2023-11-28T05:49:41.370Z,95.90
2023-11-28T05:50:41.311Z,95.90
2023-11-28T05:51:41.338Z,95.58
2023-11-28T05:52:41.348Z,95.68
2023-11-28T05:53:41.272Z,96.04
2023-11-28T05:54:41.262Z,96.11
2023-11-28T05:55:41.287Z,96.00
2023-11-28T05:56:41.239Z,95.68
2023-11-28T05:57:41.223Z,95.42
2023-11-28T05:58:41.256Z,95.42
2023-11-28T05:59:41.211Z,95.94
2023-11-28T06:00:41.210Z,95.84
2023-11-28T06:01:41.230Z,95.52
2023-11-28T06:02:41.323Z,95.62
2023-11-28T06:03:41.269Z,95.94
2023-11-28T06:04:41.205Z,96.04
2023-11-28T06:05:44.081Z,95.84
2023-11-28T06:06:41.154Z,95.62
2023-11-28T06:07:41.154Z,95.62
2023-11-28T06:08:41.134Z,95.73
2023-11-28T06:09:41.118Z,95.94
2023-11-28T06:10:41.166Z,96.00
2023-11-28T06:11:41.088Z,96.00
2023-11-28T06:12:41.090Z,95.73
2023-11-28T06:13:41.105Z,95.79
2023-11-28T06:14:41.002Z,95.79
2023-11-28T06:15:41.060Z,95.68
2023-11-28T06:16:41.035Z,95.90
2023-11-28T06:17:43.100Z,96.00
2023-11-28T06:18:40.961Z,95.90
2023-11-28T06:19:40.959Z,95.79
2023-11-28T06:20:40.950Z,95.48
2023-11-28T06:21:40.960Z,95.37
2023-11-28T06:22:40.970Z,95.48
2023-11-28T06:23:40.930Z,95.37
2023-11-28T06:24:40.898Z,95.27
2023-11-28T06:25:40.910Z,95.17
2023-11-28T06:26:40.887Z,94.64
2023-11-28T06:27:40.878Z,94.54
2023-11-28T06:28:40.897Z,94.54
2023-11-28T06:29:40.851Z,94.43
2023-11-28T06:30:40.874Z,94.12
2023-11-28T06:31:40.894Z,94.01
2023-11-28T06:32:40.856Z,93.49
2023-11-28T06:33:40.833Z,93.38
2023-11-28T06:34:40.839Z,93.27
2023-11-28T06:35:40.907Z,92.96
2023-11-28T06:36:40.859Z,92.65
2023-11-28T06:37:40.801Z,92.19
2023-11-28T06:38:40.761Z,91.87
2023-11-28T06:39:40.760Z,91.56
2023-11-28T06:40:40.767Z,91.03
2023-11-28T06:41:40.745Z,90.51
2023-11-28T06:42:40.762Z,90.41
2023-11-28T06:43:40.725Z,90.30
2023-11-28T06:44:40.726Z,90.09
2023-11-28T06:45:40.704Z,89.78
2023-11-28T06:46:40.697Z,89.78
2023-11-28T06:47:40.755Z,89.57
2023-11-28T06:48:40.849Z,89.78
2023-11-28T06:49:40.673Z,89.88
2023-11-28T06:50:40.634Z,88.94
2023-11-28T06:51:40.624Z,89.04
2023-11-28T06:52:40.631Z,89.25
2023-11-28T06:53:40.606Z,89.57
2023-11-28T06:54:40.623Z,89.25
2023-11-28T06:55:40.594Z,88.94
2023-11-28T06:56:40.585Z,88.84
2023-11-28T06:57:40.541Z,88.84
2023-11-28T06:58:40.590Z,88.90
2023-11-28T06:59:40.536Z,89.00
2023-11-28T07:00:40.520Z,89.11
2023-11-28T07:01:41.579Z,89.63
2023-11-28T07:02:40.562Z,89.53
2023-11-28T07:03:40.529Z,89.22
2023-11-28T07:04:40.528Z,89.22
2023-11-28T07:05:40.480Z,89.32
2023-11-28T07:06:40.476Z,89.63
2023-11-28T07:07:40.502Z,89.42
2023-11-28T07:08:40.454Z,89.32
2023-11-28T07:09:40.430Z,89.00
2023-11-28T07:10:40.444Z,89.25
2023-11-28T07:11:40.408Z,88.79
2023-11-28T07:12:40.394Z,88.69
2023-11-28T07:13:40.455Z,88.94
2023-11-28T07:14:40.391Z,89.42
2023-11-28T07:15:40.374Z,89.95
2023-11-28T07:16:40.560Z,89.95
2023-11-28T07:17:40.398Z,89.73
2023-11-28T07:18:40.330Z,89.32
2023-11-28T07:19:40.370Z,89.84
2023-11-28T07:20:40.331Z,89.63
2023-11-28T07:21:40.298Z,89.67
2023-11-28T07:22:40.325Z,89.88
2023-11-28T07:23:40.298Z,90.72
2023-11-28T07:24:40.309Z,90.61
2023-11-28T07:25:40.328Z,90.72
2023-11-28T07:26:40.259Z,91.24
2023-11-28T07:27:40.246Z,90.83
2023-11-28T07:28:40.282Z,90.83
2023-11-28T07:29:40.235Z,91.03
2023-11-28T07:30:40.256Z,90.83
2023-11-28T07:31:40.300Z,90.83
2023-11-28T07:32:40.246Z,90.83
2023-11-28T07:33:40.184Z,91.14
2023-11-28T07:34:40.214Z,91.03
2023-11-28T07:35:40.187Z,90.93
2023-11-28T07:36:40.148Z,91.46
2023-11-28T07:37:40.438Z,92.08
2023-11-28T07:38:40.134Z,91.77
2023-11-28T07:39:40.127Z,91.87
2023-11-28T07:40:40.187Z,91.87
2023-11-28T07:41:40.122Z,92.08
2023-11-28T07:42:40.216Z,91.77
2023-11-28T07:43:40.100Z,92.08
2023-11-28T07:44:40.132Z,92.08
2023-11-28T07:45:40.170Z,92.29
2023-11-28T07:46:40.197Z,92.29
2023-11-28T07:47:40.081Z,92.50
2023-11-28T07:48:40.058Z,92.71
2023-11-28T07:49:40.066Z,92.40
2023-11-28T07:50:40.013Z,91.98
2023-11-28T07:51:39.987Z,91.66
2023-11-28T07:52:40.180Z,91.98
2023-11-28T07:53:39.963Z,92.61
2023-11-28T07:54:39.962Z,92.82
2023-11-28T07:55:40.039Z,92.08
2023-11-28T07:56:39.942Z,92.29
2023-11-28T07:57:39.925Z,92.82
2023-11-28T07:58:40.028Z,92.77
2023-11-28T07:59:39.904Z,91.98
2023-11-28T08:00:39.961Z,92.08
2023-11-28T08:01:40.079Z,91.87
2023-11-28T08:02:39.983Z,91.66
2023-11-28T08:03:39.955Z,92.19
2023-11-28T08:04:39.994Z,92.14
2023-11-28T08:05:39.861Z,92.08
2023-11-28T08:06:39.871Z,91.66
2023-11-28T08:07:39.883Z,91.66
2023-11-28T08:08:40.031Z,91.77
2023-11-28T08:09:39.804Z,92.19
2023-11-28T08:10:39.831Z,92.29
2023-11-28T08:11:39.797Z,92.40
2023-11-28T08:12:39.774Z,92.29
2023-11-28T08:13:39.804Z,92.29
2023-11-28T08:14:39.806Z,92.50
2023-11-28T08:15:39.800Z,92.50
2023-11-28T08:16:39.905Z,92.50
2023-11-28T08:17:39.818Z,92.92
2023-11-28T08:18:42.325Z,92.29
2023-11-28T08:19:39.710Z,92.29
2023-11-28T08:20:39.679Z,92.08
2023-11-28T08:21:39.725Z,92.40
2023-11-28T08:22:39.727Z,92.25
2023-11-28T08:23:39.667Z,91.72
2023-11-28T08:24:39.652Z,91.77
2023-11-28T08:25:39.660Z,91.98
2023-11-28T08:26:39.668Z,92.35
2023-11-28T08:27:39.615Z,92.46
2023-11-28T08:28:39.946Z,91.83
2023-11-28T08:29:39.590Z,91.56
2023-11-28T08:30:39.629Z,91.35
2023-11-28T08:31:39.692Z,91.77
2023-11-28T08:32:39.805Z,91.46
2023-11-28T08:33:39.672Z,91.87
2023-11-28T08:34:39.576Z,92.40
2023-11-28T08:35:39.704Z,92.50
2023-11-28T08:36:39.643Z,92.19
2023-11-28T08:37:39.610Z,91.83
2023-11-28T08:38:39.535Z,91.94
2023-11-28T08:39:39.481Z,92.14
2023-11-28T08:40:39.600Z,92.04
2023-11-28T08:41:39.821Z,91.94
2023-11-28T08:42:39.609Z,91.52
2023-11-28T08:43:39.579Z,91.87
2023-11-28T08:44:39.570Z,92.08
2023-11-28T08:45:39.462Z,92.61
2023-11-28T08:46:39.754Z,92.77
2023-11-28T08:47:39.680Z,92.29
2023-11-28T08:48:39.391Z,91.94
2023-11-28T08:49:39.623Z,91.72
2023-11-28T08:50:39.498Z,92.04
2023-11-28T08:51:39.372Z,92.14
2023-11-28T08:52:39.406Z,91.83
2023-11-28T08:53:39.506Z,91.94
2023-11-28T08:54:39.340Z,91.94
2023-11-28T08:55:39.409Z,92.04
2023-11-28T08:56:39.478Z,92.25
2023-11-28T08:57:39.426Z,92.25
2023-11-28T08:58:39.331Z,92.04
2023-11-28T08:59:39.295Z,92.04
2023-11-28T09:00:39.275Z,91.89
2023-11-28T09:01:39.411Z,92.00
2023-11-28T09:02:39.615Z,91.69
2023-11-28T09:03:39.341Z,91.47
2023-11-28T09:04:39.352Z,91.47
2023-11-28T09:05:39.258Z,91.47
2023-11-28T09:06:39.232Z,91.37
2023-11-28T09:07:39.211Z,91.16
2023-11-28T09:08:42.950Z,91.47
2023-11-28T09:09:39.184Z,91.69
2023-11-28T09:10:39.254Z,91.69
2023-11-28T09:11:39.205Z,91.47
2023-11-28T09:12:39.149Z,91.37
2023-11-28T09:13:39.451Z,91.79
2023-11-28T09:14:47.184Z,91.69
2023-11-28T09:15:39.351Z,91.43
2023-11-28T09:16:39.203Z,91.12
2023-11-28T09:17:39.150Z,91.02
2023-11-28T09:18:39.203Z,90.74
2023-11-28T09:19:39.138Z,90.95
2023-11-28T09:20:39.056Z,91.06
2023-11-28T09:21:39.090Z,90.53
2023-11-28T09:22:39.240Z,90.22
2023-11-28T09:23:39.017Z,90.53
2023-11-28T09:24:40.045Z,90.74
2023-11-28T09:25:43.775Z,91.16
2023-11-28T09:26:39.106Z,91.27
2023-11-28T09:27:38.966Z,90.74
2023-11-28T09:28:39.090Z,90.64
2023-11-28T09:29:39.004Z,90.36
2023-11-28T09:30:38.955Z,91.09
2023-11-28T09:31:39.036Z,91.47
2023-11-28T09:32:39.033Z,91.58
2023-11-28T09:33:39.008Z,91.37
2023-11-28T09:34:38.986Z,91.58
2023-11-28T09:35:38.898Z,90.84
2023-11-28T09:36:38.960Z,90.95
2023-11-28T09:37:38.900Z,91.06
2023-11-28T09:38:38.918Z,91.37
2023-11-28T09:39:38.859Z,91.69
2023-11-28T09:40:38.911Z,90.95
2023-11-28T09:41:43.071Z,90.68
2023-11-28T09:42:38.836Z,90.78
2023-11-28T09:43:38.996Z,90.99
2023-11-28T09:44:38.833Z,91.58
2023-11-28T09:45:38.789Z,91.79
2023-11-28T09:46:38.903Z,91.16
2023-11-28T09:47:38.955Z,90.53
2023-11-28T09:48:38.765Z,90.01
2023-11-28T09:49:38.810Z,90.08
2023-11-28T09:50:38.787Z,90.08
2023-11-28T09:51:38.795Z,90.28
2023-11-28T09:52:38.798Z,90.28
2023-11-28T09:53:38.883Z,90.18
2023-11-28T09:54:38.692Z,90.28
2023-11-28T09:55:39.069Z,90.49
2023-11-28T09:56:38.702Z,89.76
2023-11-28T09:57:38.869Z,90.01
2023-11-28T09:58:38.694Z,89.90
2023-11-28T09:59:43.540Z,90.01
2023-11-28T10:00:38.639Z,90.53
2023-11-28T10:01:38.647Z,90.91
2023-11-28T10:02:38.762Z,90.49
2023-11-28T10:03:38.711Z,89.65
2023-11-28T10:04:38.711Z,89.76
2023-11-28T10:05:38.633Z,89.55
2023-11-28T10:06:38.598Z,89.97
2023-11-28T10:07:38.683Z,89.55
2023-11-28T10:08:38.524Z,89.65
2023-11-28T10:09:38.541Z,89.45
2023-11-28T10:10:38.497Z,89.13
2023-11-28T10:11:38.503Z,89.76
2023-11-28T10:12:38.500Z,89.23
2023-11-28T10:13:38.520Z,88.71
2023-11-28T10:14:38.469Z,88.71
2023-11-28T10:15:38.472Z,88.61
2023-11-28T10:16:38.463Z,88.82
2023-11-28T10:17:38.566Z,88.61
2023-11-28T10:18:38.425Z,88.50
2023-11-28T10:19:38.409Z,89.03
2023-11-28T10:20:38.388Z,89.13
2023-11-28T10:21:38.424Z,89.55
2023-11-28T10:22:38.393Z,89.86
2023-11-28T10:23:38.377Z,89.97
2023-11-28T10:24:38.372Z,89.86
2023-11-28T10:25:38.351Z,89.34
2023-11-28T10:26:38.353Z,89.23
2023-11-28T10:27:38.383Z,89.23
2023-11-28T10:28:38.323Z,89.45
2023-11-28T10:29:38.370Z,88.40
2023-11-28T10:30:38.375Z,89.03
2023-11-28T10:31:38.294Z,89.34
2023-11-28T10:32:38.320Z,89.23
2023-11-28T10:33:38.279Z,89.03
2023-11-28T10:34:38.417Z,89.34
2023-11-28T10:35:39.026Z,89.23
2023-11-28T10:36:38.228Z,88.71
2023-11-28T10:37:38.359Z,89.03
2023-11-28T10:38:38.246Z,89.76
2023-11-28T10:39:38.235Z,89.23
2023-11-28T10:40:38.208Z,88.67
2023-11-28T10:41:38.183Z,88.15
2023-11-28T10:42:38.181Z,88.99
2023-11-28T10:43:38.190Z,88.99
2023-11-28T10:44:38.300Z,89.09
2023-11-28T10:45:38.693Z,88.88
2023-11-28T10:46:38.153Z,88.57
2023-11-28T10:47:38.179Z,88.46
2023-11-28T10:48:38.137Z,88.36
2023-11-28T10:49:38.159Z,87.94
2023-11-28T10:50:38.157Z,87.63
2023-11-28T10:51:38.097Z,87.84
2023-11-28T10:52:38.112Z,88.15
2023-11-28T10:53:38.075Z,88.46
2023-11-28T10:54:38.477Z,88.46
2023-11-28T10:55:38.030Z,88.46
2023-11-28T10:56:38.026Z,88.15
2023-11-28T10:57:38.029Z,87.94
2023-11-28T10:58:38.041Z,87.94
2023-11-28T10:59:38.319Z,88.04
2023-11-28T11:00:38.013Z,87.73
2023-11-28T11:01:38.000Z,87.42
2023-11-28T11:02:38.020Z,87.84
2023-11-28T11:03:38.022Z,87.73
2023-11-28T11:04:38.276Z,88.04
2023-11-28T11:05:37.928Z,87.94
2023-11-28T11:06:37.959Z,87.63
2023-11-28T11:07:37.911Z,87.42
2023-11-28T11:08:37.936Z,87.77
2023-11-28T11:09:37.896Z,88.19
2023-11-28T11:10:37.925Z,88.09
2023-11-28T11:11:37.868Z,87.98
2023-11-28T11:12:37.845Z,87.66
2023-11-28T11:13:37.952Z,87.94
2023-11-28T11:14:37.870Z,88.46
2023-11-28T11:15:37.849Z,88.36
2023-11-28T11:16:37.912Z,88.78
2023-11-28T11:17:37.866Z,88.32
2023-11-28T11:18:37.826Z,88.11
2023-11-28T11:19:37.803Z,87.48
2023-11-28T11:20:37.774Z,88.26
2023-11-28T11:21:37.813Z,89.05
2023-11-28T11:22:37.763Z,87.84
2023-11-28T11:23:37.827Z,87.42
2023-11-28T11:24:37.766Z,87.10
2023-11-28T11:25:37.801Z,86.90
2023-11-28T11:26:37.723Z,87.21
2023-11-28T11:27:37.683Z,87.63
2023-11-28T11:28:37.710Z,87.56
2023-11-28T11:29:37.708Z,87.21
2023-11-28T11:30:37.659Z,87.52
2023-11-28T11:31:37.735Z,88.26
2023-11-28T11:32:37.654Z,88.36
2023-11-28T11:33:37.670Z,87.84
2023-11-28T11:34:37.747Z,87.63
2023-11-28T11:35:37.626Z,87.63
2023-11-28T11:36:37.599Z,87.52
2023-11-28T11:37:37.702Z,87.52
2023-11-28T11:38:38.564Z,87.10
2023-11-28T11:39:37.576Z,86.90
2023-11-28T11:40:37.574Z,86.58
2023-11-28T11:41:37.587Z,87.52
2023-11-28T11:42:37.527Z,87.00
2023-11-28T11:43:37.567Z,87.21
2023-11-28T11:44:37.539Z,86.69
2023-11-28T11:45:37.492Z,86.90
2023-11-28T11:46:37.477Z,86.75
2023-11-28T11:47:38.062Z,86.02
2023-11-28T11:48:37.539Z,86.02
2023-11-28T11:49:37.484Z,86.44
2023-11-28T11:50:38.802Z,86.75
2023-11-28T11:51:37.441Z,86.44
2023-11-28T11:52:37.439Z,86.13
2023-11-28T11:53:37.413Z,86.13
2023-11-28T11:54:37.441Z,86.54
2023-11-28T11:55:37.403Z,85.81
2023-11-28T11:56:37.386Z,86.44
2023-11-28T11:57:37.373Z,87.27
2023-11-28T11:58:37.347Z,86.85
2023-11-28T11:59:37.396Z,86.13
2023-11-28T12:00:37.326Z,86.33
2023-11-28T12:01:37.388Z,86.54
2023-11-28T12:02:37.383Z,86.33
2023-11-28T12:04:37.357Z,86.82
2023-11-28T12:05:37.327Z,86.82
2023-11-28T12:06:37.263Z,86.75
2023-11-28T12:07:37.256Z,86.85
2023-11-28T12:08:37.253Z,87.55
2023-11-28T12:09:37.254Z,87.07
2023-11-28T12:10:37.265Z,86.65
2023-11-28T12:11:37.233Z,86.33
2023-11-28T12:12:37.200Z,85.81
2023-11-28T12:13:37.211Z,86.44
2023-11-28T12:14:37.189Z,86.65
2023-11-28T12:15:37.192Z,86.85
2023-11-28T12:16:37.211Z,87.07
2023-11-28T12:17:37.225Z,87.38
2023-11-28T12:18:37.176Z,87.17
2023-11-28T12:19:37.129Z,86.85
2023-11-28T12:20:41.890Z,87.27
2023-11-28T12:21:37.113Z,86.33
2023-11-28T12:22:37.099Z,85.71
2023-11-28T12:23:37.087Z,86.44
2023-11-28T12:24:37.079Z,86.58
2023-11-28T12:25:37.068Z,86.90
2023-11-28T12:26:37.076Z,87.73
2023-11-28T12:27:37.041Z,87.63
2023-11-28T12:28:37.059Z,87.00
2023-11-28T12:29:37.027Z,86.83
2023-11-28T12:30:37.019Z,87.04
2023-11-28T12:31:37.058Z,87.15
2023-11-28T12:32:37.078Z,87.56
2023-11-28T12:33:37.037Z,87.88
2023-11-28T12:34:36.993Z,86.93
2023-11-28T12:35:36.965Z,86.83
2023-11-28T12:36:36.996Z,86.62
2023-11-28T12:37:36.933Z,86.93
2023-11-28T12:38:36.931Z,87.04
2023-11-28T12:39:36.941Z,87.35
2023-11-28T12:40:36.907Z,87.66
2023-11-28T12:41:36.935Z,87.88
2023-11-28T12:42:36.894Z,88.29
2023-11-28T12:43:36.858Z,87.88
2023-11-28T12:44:36.862Z,87.56
2023-11-28T12:45:36.849Z,87.46
2023-11-28T12:46:36.856Z,87.35
2023-11-28T12:47:36.879Z,87.46
2023-11-28T12:48:36.836Z,87.56
2023-11-28T12:49:36.810Z,87.35
2023-11-28T12:50:36.815Z,87.56
2023-11-28T12:51:36.816Z,87.66
2023-11-28T12:52:36.789Z,87.77
2023-11-28T12:53:36.773Z,87.77
2023-11-28T12:54:36.767Z,88.19
2023-11-28T12:55:36.751Z,87.35
2023-11-28T12:56:36.770Z,87.46
2023-11-28T12:57:36.740Z,87.46
2023-11-28T12:58:36.728Z,87.56
2023-11-28T12:59:36.711Z,88.09
2023-11-28T13:00:36.720Z,88.61
2023-11-28T13:01:36.756Z,89.23
2023-11-28T13:02:36.798Z,89.03
2023-11-28T13:03:36.774Z,88.71
2023-11-28T13:04:36.711Z,88.09
2023-11-28T13:05:36.646Z,87.77
2023-11-28T13:06:47.839Z,87.66
2023-11-28T13:07:42.188Z,87.81
2023-11-28T13:08:36.718Z,87.60
2023-11-28T13:09:36.599Z,87.92
2023-11-28T13:10:36.611Z,88.19
2023-11-28T13:11:36.599Z,88.50
2023-11-28T13:12:36.573Z,88.61
2023-11-28T13:13:36.566Z,88.09
2023-11-28T13:14:36.737Z,88.09
2023-11-28T13:15:36.547Z,87.98
2023-11-28T13:16:38.034Z,88.29
2023-11-28T13:17:36.711Z,88.29
2023-11-28T13:18:36.681Z,88.71
2023-11-28T13:19:36.556Z,88.40
2023-11-28T13:20:36.518Z,87.98
2023-11-28T13:21:36.513Z,88.09
2023-11-28T13:22:36.552Z,88.61
2023-11-28T13:23:36.443Z,88.29
2023-11-28T13:24:36.441Z,87.77
2023-11-28T13:25:36.441Z,88.50
2023-11-28T13:26:36.457Z,88.09
2023-11-28T13:27:36.414Z,87.88
2023-11-28T13:28:36.418Z,87.15
2023-11-28T13:29:39.409Z,86.93
2023-11-28T13:30:36.420Z,87.25
2023-11-28T13:31:36.381Z,87.35
2023-11-28T13:32:36.482Z,87.77
2023-11-28T13:33:36.352Z,87.56
2023-11-28T13:34:36.337Z,87.88
2023-11-28T13:35:36.359Z,87.98
2023-11-28T13:36:36.361Z,87.56
2023-11-28T13:37:36.328Z,87.46
2023-11-28T13:38:36.322Z,87.77
2023-11-28T13:39:36.293Z,87.88
2023-11-28T13:40:36.280Z,87.77
2023-11-28T13:41:36.466Z,87.35
2023-11-28T13:42:36.270Z,87.25
2023-11-28T13:43:36.239Z,87.56
2023-11-28T13:44:36.267Z,87.98
2023-11-28T13:45:36.284Z,87.46
2023-11-28T13:46:36.298Z,87.56
2023-11-28T13:47:36.278Z,87.77
2023-11-28T13:48:36.197Z,87.98
2023-11-28T13:49:36.239Z,88.09
2023-11-28T13:50:36.251Z,87.35
2023-11-28T13:51:36.158Z,86.93
2023-11-28T13:52:36.160Z,86.52
2023-11-28T13:53:36.207Z,86.41
2023-11-28T13:54:36.136Z,86.31
2023-11-28T13:55:36.117Z,86.72
2023-11-28T13:56:36.095Z,86.62
2023-11-28T13:57:36.118Z,87.04
2023-11-28T13:58:36.072Z,86.93
2023-11-28T13:59:36.100Z,87.25
2023-11-28T14:00:36.089Z,87.15
2023-11-28T14:01:36.080Z,86.93
2023-11-28T14:02:43.621Z,86.93
2023-11-28T14:03:36.745Z,87.25
2023-11-28T14:04:36.037Z,86.93
2023-11-28T14:05:36.005Z,87.25
2023-11-28T14:06:35.990Z,86.93
2023-11-28T14:07:35.979Z,86.93
2023-11-28T14:08:35.968Z,86.93
2023-11-28T14:09:35.957Z,85.78
2023-11-28T14:10:35.955Z,85.68
2023-11-28T14:11:35.993Z,85.89
2023-11-28T14:12:35.966Z,86.41
2023-11-28T14:13:35.906Z,86.52
2023-11-28T14:14:46.692Z,86.10
2023-11-28T14:15:35.901Z,86.31
2023-11-28T14:16:35.980Z,87.21
2023-11-28T14:17:36.199Z,86.90
2023-11-28T14:18:36.109Z,86.27
2023-11-28T14:19:35.972Z,86.16
2023-11-28T14:20:35.902Z,86.27
2023-11-28T14:21:35.884Z,86.10
2023-11-28T14:22:35.852Z,86.20
2023-11-28T14:23:35.823Z,86.10
2023-11-28T14:24:35.882Z,86.47
2023-11-28T14:25:35.800Z,86.10
2023-11-28T14:26:35.881Z,85.78
2023-11-28T14:27:35.798Z,86.20
2023-11-28T14:28:35.797Z,86.41
2023-11-28T14:29:35.754Z,85.89
2023-11-28T14:30:35.765Z,85.78
2023-11-28T14:31:35.795Z,85.89
2023-11-28T14:32:36.012Z,85.78
2023-11-28T14:33:35.703Z,86.41
2023-11-28T14:34:35.736Z,85.78
2023-11-28T14:35:35.946Z,85.05
2023-11-28T14:36:35.688Z,85.58
2023-11-28T14:37:35.702Z,85.89
2023-11-28T14:38:35.742Z,85.68
2023-11-28T14:39:35.639Z,85.58
2023-11-28T14:40:35.667Z,85.68
2023-11-28T14:41:35.621Z,85.58
2023-11-28T14:42:35.632Z,85.89
2023-11-28T14:43:35.601Z,86.52
2023-11-28T14:44:35.624Z,86.93
2023-11-28T14:45:35.650Z,87.04
2023-11-28T14:46:35.640Z,86.10
2023-11-28T14:47:35.959Z,85.36
2023-11-28T14:48:35.646Z,85.36
2023-11-28T14:49:35.528Z,85.05
2023-11-28T14:50:35.558Z,84.95
2023-11-28T14:51:35.551Z,85.47
2023-11-28T14:52:35.538Z,86.14
2023-11-28T14:53:35.550Z,86.31
2023-11-28T14:54:35.483Z,86.31
2023-11-28T14:55:35.463Z,86.24
2023-11-28T14:56:35.634Z,86.14
2023-11-28T14:57:35.486Z,86.04
2023-11-28T14:58:35.490Z,85.93
2023-11-28T14:59:35.521Z,85.72
2023-11-28T15:00:35.454Z,85.61
2023-11-28T15:01:35.438Z,86.04
2023-11-28T15:02:35.530Z,86.14
2023-11-28T15:03:35.502Z,86.04
2023-11-28T15:04:35.436Z,86.14
2023-11-28T15:05:35.450Z,86.55
2023-11-28T15:06:35.436Z,86.04
2023-11-28T15:07:35.383Z,85.72
2023-11-28T15:08:35.381Z,85.41
2023-11-28T15:09:35.401Z,85.51
2023-11-28T15:10:35.336Z,85.93
2023-11-28T15:11:41.989Z,86.04
2023-11-28T15:17:46.070Z,86.80
2023-11-28T15:18:45.741Z,87.33
2023-11-28T15:19:45.709Z,87.12
2023-11-28T15:20:45.704Z,87.01
2023-11-28T15:21:45.694Z,86.91
2023-11-28T15:22:45.759Z,86.80
2023-11-28T15:23:45.731Z,87.01
2023-11-28T15:24:45.673Z,87.23
2023-11-28T15:25:45.703Z,87.23
2023-11-28T15:26:45.636Z,87.23
2023-11-28T15:27:45.629Z,87.43
2023-11-28T15:28:45.661Z,87.43
2023-11-28T15:29:45.598Z,87.54
2023-11-28T15:30:45.605Z,87.54
2023-11-28T15:31:45.639Z,87.54
2023-11-28T15:32:45.692Z,87.64
2023-11-28T15:33:45.631Z,87.64
2023-11-28T15:34:45.623Z,88.17
2023-11-28T15:35:45.608Z,88.27
2023-11-28T15:36:45.533Z,88.27
2023-11-28T15:37:45.512Z,88.27
2023-11-28T15:38:45.557Z,88.17
2023-11-28T15:39:45.515Z,88.27
2023-11-28T15:40:45.569Z,88.42
2023-11-28T15:41:45.537Z,88.48
2023-11-28T15:42:45.487Z,88.73
2023-11-28T15:43:45.465Z,89.11
2023-11-28T15:44:45.491Z,89.11
2023-11-28T15:45:45.441Z,88.90
2023-11-28T15:46:45.446Z,88.59
2023-11-28T15:47:45.574Z,88.17
2023-11-28T15:48:45.465Z,88.06
2023-11-28T15:49:48.401Z,88.06
2023-11-28T15:50:45.531Z,88.27
2023-11-28T15:51:45.418Z,88.17
2023-11-28T15:52:45.426Z,88.27
2023-11-28T15:53:45.395Z,88.37
2023-11-28T15:54:45.394Z,88.17
2023-11-28T15:55:45.906Z,88.06
2023-11-28T15:56:45.344Z,87.96
2023-11-28T15:57:45.353Z,88.06
2023-11-28T15:58:45.394Z,88.27
2023-11-28T15:59:45.344Z,87.99
2023-11-28T16:00:45.382Z,87.89
2023-11-28T16:01:45.366Z,87.89
2023-11-28T16:02:49.052Z,87.79
2023-11-28T16:03:45.379Z,87.79
2023-11-28T16:04:45.312Z,87.47
2023-11-28T16:05:45.317Z,86.53
2023-11-28T16:06:45.305Z,86.63
2023-11-28T16:07:45.266Z,86.74
2023-11-28T16:08:45.268Z,86.70
2023-11-28T16:09:45.180Z,86.91
2023-11-28T16:10:45.303Z,87.23
2023-11-28T16:11:45.355Z,87.23
2023-11-28T16:12:45.233Z,87.23
2023-11-28T16:13:46.243Z,87.12
2023-11-28T16:14:48.510Z,87.01
2023-11-28T16:15:47.097Z,87.01
2023-11-28T16:16:45.971Z,87.12
2023-11-28T16:17:45.386Z,87.33
2023-11-28T16:18:45.295Z,87.43
2023-11-28T16:19:45.200Z,87.64
2023-11-28T16:20:45.254Z,87.74
2023-11-28T16:21:45.117Z,87.64
2023-11-28T16:22:45.278Z,87.54
2023-11-28T16:23:45.546Z,87.54
2023-11-28T16:24:45.133Z,87.74
2023-11-28T16:25:45.345Z,87.74
2023-11-28T16:26:45.262Z,87.96
2023-11-28T16:27:45.224Z,88.06
2023-11-28T16:28:45.191Z,87.74
2023-11-28T16:29:45.058Z,87.37
2023-11-28T16:30:45.475Z,87.64
2023-11-28T16:31:45.093Z,87.68
2023-11-28T16:32:45.126Z,87.79
2023-11-28T16:33:45.101Z,88.10
2023-11-28T16:34:45.218Z,88.21
2023-11-28T16:35:45.070Z,88.10
2023-11-28T16:36:45.074Z,87.99
2023-11-28T16:37:45.002Z,88.10
2023-11-28T16:38:44.977Z,88.21
2023-11-28T16:39:44.973Z,88.31
2023-11-28T16:40:44.945Z,88.31
2023-11-28T16:41:44.893Z,88.52
2023-11-28T16:42:44.910Z,88.42
2023-11-28T16:43:44.885Z,88.42
2023-11-28T16:44:44.902Z,88.52
2023-11-28T16:45:44.901Z,88.62
2023-11-28T16:46:44.873Z,88.62
2023-11-28T16:47:44.917Z,88.52
2023-11-28T16:48:44.820Z,88.42
2023-11-28T16:49:44.826Z,88.21
2023-11-28T16:50:44.811Z,88.21
2023-11-28T16:51:44.857Z,88.21
2023-11-28T16:52:44.795Z,88.21
2023-11-28T16:53:44.768Z,88.31
2023-11-28T16:54:44.821Z,88.42
2023-11-28T16:55:44.816Z,88.52
2023-11-28T16:56:44.837Z,88.84
2023-11-28T16:57:44.775Z,88.94
2023-11-28T16:58:44.771Z,88.94
2023-11-28T16:59:44.745Z,89.04
2023-11-28T17:00:44.762Z,89.15
2023-11-28T17:01:44.829Z,89.36
2023-11-28T17:02:44.922Z,89.36
2023-11-28T17:03:44.832Z,89.36
2023-11-28T17:04:44.685Z,89.47
2023-11-28T17:05:44.692Z,89.47
2023-11-28T17:06:44.717Z,89.36
2023-11-28T17:07:44.669Z,89.36
2023-11-28T17:08:44.660Z,89.47
2023-11-28T17:09:44.726Z,89.47
2023-11-28T17:10:44.668Z,89.57
2023-11-28T17:11:44.587Z,89.47
2023-11-28T17:12:44.646Z,89.72
2023-11-28T17:13:44.590Z,89.61
2023-11-28T17:14:44.575Z,89.78
2023-11-28T17:15:44.536Z,89.78
2023-11-28T17:16:44.605Z,89.92
2023-11-28T17:17:44.589Z,90.09
2023-11-28T17:18:44.594Z,90.23
2023-11-28T17:19:44.507Z,90.55
2023-11-28T17:20:44.538Z,90.83
2023-11-28T17:21:44.761Z,90.97
2023-11-28T17:22:44.556Z,90.76
2023-11-28T17:23:44.594Z,90.87
2023-11-28T17:24:44.585Z,91.08
2023-11-28T17:25:44.492Z,91.08
2023-11-28T17:26:44.481Z,91.39
2023-11-28T17:27:44.520Z,91.60
2023-11-28T17:28:44.436Z,91.81
2023-11-28T17:29:44.731Z,91.81
2023-11-28T17:30:44.477Z,91.91
2023-11-28T17:31:44.404Z,92.13
2023-11-28T17:32:44.495Z,92.02
2023-11-28T17:33:44.372Z,91.91
2023-11-28T17:34:44.330Z,91.91
2023-11-28T17:35:44.398Z,92.02
2023-11-28T17:36:44.337Z,91.91
2023-11-28T17:37:44.386Z,92.23
2023-11-28T17:38:44.304Z,92.44
2023-11-28T17:39:44.312Z,92.54
2023-11-28T17:40:44.291Z,92.65
2023-11-28T17:41:44.274Z,92.76
2023-11-28T17:42:44.298Z,92.96
2023-11-28T17:43:44.296Z,93.17
2023-11-28T17:44:44.229Z,93.43
2023-11-28T17:45:44.232Z,93.53
2023-11-28T17:46:44.244Z,93.43
2023-11-28T17:47:44.571Z,93.53
2023-11-28T17:48:44.247Z,93.53
2023-11-28T17:49:44.205Z,93.53
2023-11-28T17:50:44.200Z,93.63
2023-11-28T17:51:44.181Z,93.74
2023-11-28T17:52:44.147Z,93.74
2023-11-28T17:53:44.149Z,93.74
2023-11-28T17:54:44.167Z,93.74
2023-11-28T17:55:44.161Z,93.84
2023-11-28T17:56:44.163Z,93.95
2023-11-28T17:57:44.163Z,94.06
2023-11-28T17:58:44.101Z,94.06